Pagrindinis puslapis
METAR-TAF:

METAR-TAF

Oro uostai :

Izmiras, Turkija

platuma: 38-16N, ilguma: 027-09E, Aukštis: 125 m

Dabartinis oras

Ataskaita buvo paskelbta 49 minutes, ne 17:20 UTC
Vėjas 18 kt iš Šiaurės
Temperatūra 25°C
Drėgmė 44%
Slėgis 1015 hPa
Matomumas 10 km arba daugiau
nėra debesų žemiau 1500 m ir nėra kamuolinių lietaus debesų

METAR: LTBJ 151720Z 01018KT CAVOK 25/12 Q1015 NOSIG RMK RWY16 36016KT

Laikas: 21:09 (18:09 UTC)

Prognozė

Ataskaita buvo paskelbta 1 valandą ir 29 minutes, ne 16:40 UTC
Prognozė galioja nuo 15 metu 18 UTC su 16 metu 18 UTC
Vėjas 20 kt iš Šiaurės su gūsio iki 30 kt
Matomumas 10 km arba daugiau
nėra debesų žemiau 1500 m ir nėra kamuolinių lietaus debesų
Tapsmas
nuo 15 metu 18 UTC su 15 metu 21 UTC
Vėjas 13 kt iš Šiaurės

TAF: LTBJ 151640Z 1518/1618 01020G30KT CAVOK BECMG 1518/1521 35013KT

Orai ataskaitas ir orų prognozės (METAR, TAF).

turimą stotys yra geltonos ir raudonos taškus žemėlapyje.

Perkelti pele per norėdami pamatyti stoties vardą.

Tada spustelėkite, norėdami matyti oro stebėjimo ir prognozės.

Norėdami pakeisti žemėlapį: spustelėkite ant žalios mygtukų su juodo kryžiaus žemyn,; žalią mygtuką su brūkšneliu, jei norite nutolinti; arba žalių rodyklių gretimoms žemėlapius.


METAR-TAF: